Hot Springs, VA (24445)

6:06 AM EDT on September 22, 2014 (GMT -0400)
Thomastown | Change Station
CLOSE
Current Station
Personal Weather Station
Location: Hot Springs, VA
Elevation: 2290 ft
Nearby Weather Stations

Elev 2290 ft 38.01 °N, 79.84 °W | Updated 6 seconds ago

Overcast
Overcast
54.9 °F
Feels Like 54.9 °F
N
0.0
Wind Variable Wind from SSE
Gusts 0.0 mph

Today
High -- | Low -- °F
--% Chance of Precip.
Yesterday
High -- | Low -- °F
Precip. -- in
7:07 AM 7:16 PM
Waning Crescent, 3% visible
Pressure 30.03 in
Visibility 10.0 miles
Clouds Overcast 1500 ft
Dew Point 45 °F
Humidity 69%
Rainfall 0.00 in
Snow Depth Not available.
UV 0 out of 12
Pollen 5.20 out of 12
Air Quality Not available.
Flu Activity Not available.
METAR KHSP 220955Z AUTO 29012G18KT 10SM OVC015 08/01 A3003 RMK AO2 T00830007

More Conditions Fewer Conditions

Pressure 30.03 in
Visibility 10.0 miles
Clouds Overcast 1500 ft
Dew Point 45 °F
Humidity 69%
Rainfall 0.00 in
Snow Depth Not available.
UV 0 out of 12
Pollen 5.20 out of 12
Air Quality Not available.
Flu Activity Not available.
METAR KHSP 220955Z AUTO 29012G18KT 10SM OVC015 08/01 A3003 RMK AO2 T00830007

More Conditions Fewer Conditions

10-Day Weather Forecast

Almanac

Astronomy

Sep. 22, 2014 Rise Set
Actual Time 7:07 AM EDT 7:16 PM EDT
Civil Twilight 6:40 AM EDT 7:42 PM EDT
Nautical Twilight 6:10 AM EDT 8:13 PM EDT
Astronomical Twilight 5:39 AM EDT 8:44 PM EDT
Moon 5:35 AM EDT 6:22 PM EDT
Length of Visible Light 13h 01m
Length of Day
12h 09m
Tomorrow will be 2m 26s shorter.
Waning Crescent, 3% of the Moon is Illuminated
Today
Waning Crescent
Sep 24
New
Oct 1
First Quarter
Oct 8
Full
Oct 15
Last Quarter

Today's Extremes

State Highs State Lows

Community

WunderPhotos

Upload Photos

1,755,403 photos uploaded!

Nearby

Snow Depth

Station Depth Elevation
No new snow has been reported.

Earthquake Activity

City Distance Mag. Time & Date
No recent earthquake activity has been reported nearby.
Minimum magnitude displayed is 2.5.

Coastal Water Temperatures

Place Temperature
No Stations Reporting

Nearby Weather Stations